Time;durP1;ratioP1;P1;durP2;ratioP2;P2;SDS_P1;SDS_P2;PMS_P1;PMS_P2;Temp;Humidity;BMP_temperature;BMP_pressure;BME280_temperature;BME280_humidity;BME280_pressure;Samples;Min_cycle;Max_cycle;Signal;HPM_P1;HPM_P2
2021/03/01 12:41:04;;;;;;;3.10;0.90;;;15.90;33.20;;;;;;5025079;28;20041;-84
2021/03/01 12:43:30;;;;;;;2.15;1.10;;;16.10;33.30;;;;;;5031832;28;20029;-84
2021/03/01 12:45:56;;;;;;;3.90;1.25;;;16.20;32.90;;;;;;5011307;28;20026;-84
2021/03/01 12:48:23;;;;;;;7.00;2.42;;;16.20;32.20;;;;;;5012795;28;20033;-84
2021/03/01 12:50:54;;;;;;;8.57;2.92;;;16.00;31.80;;;;;;5010404;28;20056;-84
2021/03/01 12:53:20;;;;;;;5.78;1.92;;;16.10;32.20;;;;;;5015116;28;20029;-85
2021/03/01 12:55:46;;;;;;;6.35;1.75;;;16.20;32.40;;;;;;5012592;28;20114;-84
2021/03/01 12:58:11;;;;;;;3.85;2.00;;;16.30;32.20;;;;;;5015744;28;20428;-84
2021/03/01 13:00:38;;;;;;;5.13;1.48;;;16.40;32.00;;;;;;5018620;28;20025;-85
2021/03/01 13:03:05;;;;;;;5.07;2.20;;;16.40;31.60;;;;;;5013287;28;20503;-84
2021/03/01 13:05:31;;;;;;;5.80;1.90;;;16.40;31.10;;;;;;5017398;28;20049;-84
2021/03/01 13:07:57;;;;;;;5.30;1.70;;;16.40;31.10;;;;;;5008631;28;20072;-84
2021/03/01 13:17:07;;;;;;;5.07;1.73;;;16.40;31.30;;;;;;5033143;28;20037;-84
2021/03/01 13:19:33;;;;;;;3.13;1.73;;;16.40;31.40;;;;;;5013124;28;20029;-84
2021/03/01 13:22:02;;;;;;;6.22;2.70;;;16.30;31.60;;;;;;5016084;28;20030;-84
2021/03/01 13:24:28;;;;;;;9.43;2.78;;;16.40;31.60;;;;;;5018330;28;20026;-84
2021/03/01 13:27:03;;;;;;;13.65;4.28;;;16.50;31.60;;;;;;5013129;28;20026;-84
2021/03/01 13:29:29;;;;;;;8.10;2.28;;;16.70;31.60;;;;;;5016901;28;20392;-84
2021/03/01 13:31:54;;;;;;;6.28;1.83;;;16.70;31.60;;;;;;5045338;28;20028;-84
2021/03/01 13:34:20;;;;;;;4.22;1.33;;;16.70;31.30;;;;;;5039405;28;20036;-84
2021/03/01 13:36:46;;;;;;;2.67;1.40;;;16.60;31.00;;;;;;5020643;28;21160;-84
2021/03/01 13:39:11;;;;;;;3.22;1.60;;;16.50;31.00;;;;;;5024335;28;20652;-84
2021/03/01 13:41:37;;;;;;;4.28;1.75;;;16.50;31.20;;;;;;5059429;28;20093;-82
2021/03/01 13:44:04;;;;;;;3.30;2.00;;;16.60;31.30;;;;;;5042161;28;20017;-84
2021/03/01 13:46:32;;;;;;;3.92;1.60;;;16.60;31.00;;;;;;5040735;28;20024;-83
2021/03/01 13:48:57;;;;;;;5.57;1.75;;;16.60;31.20;;;;;;5042820;28;20119;-83
2021/03/01 13:51:23;;;;;;;5.13;1.77;;;16.60;31.30;;;;;;5038660;28;20061;-83
2021/03/01 13:53:49;;;;;;;4.43;2.00;;;16.70;31.50;;;;;;5037715;28;20044;-83
2021/03/01 13:56:15;;;;;;;3.40;1.83;;;16.70;31.70;;;;;;5041812;28;20043;-84
2021/03/01 13:58:41;;;;;;;5.30;2.17;;;16.70;31.50;;;;;;5039678;28;20426;-83
2021/03/01 14:01:07;;;;;;;5.78;2.03;;;16.70;31.50;;;;;;5052197;28;20031;-83
2021/03/01 14:03:32;;;;;;;2.95;1.60;;;16.70;31.20;;;;;;5047130;28;20053;-83
2021/03/01 14:05:58;;;;;;;2.13;1.55;;;16.70;31.10;;;;;;5039782;28;21040;-83
2021/03/01 14:08:24;;;;;;;5.65;1.95;;;16.70;31.10;;;;;;5040475;28;20056;-83
2021/03/01 14:10:50;;;;;;;8.35;2.13;;;16.80;31.30;;;;;;5039595;28;20033;-83
2021/03/01 14:13:16;;;;;;;3.45;1.65;;;16.80;31.30;;;;;;5045035;28;20089;-83
2021/03/01 14:15:42;;;;;;;4.18;1.38;;;16.70;31.20;;;;;;5040102;28;20460;-83
2021/03/01 14:18:07;;;;;;;3.13;1.58;;;16.70;31.10;;;;;;5039709;28;20053;-83
2021/03/01 14:20:33;;;;;;;3.42;1.80;;;16.70;30.90;;;;;;5037236;28;20032;-84
2021/03/01 14:22:59;;;;;;;7.22;1.60;;;16.70;30.90;;;;;;5038267;28;20017;-83
2021/03/01 14:25:25;;;;;;;3.80;1.38;;;16.70;30.80;;;;;;5036055;28;20116;-84
2021/03/01 14:27:51;;;;;;;4.20;1.70;;;16.70;31.00;;;;;;5037522;28;20025;-83
2021/03/01 14:30:17;;;;;;;1.80;1.30;;;16.80;31.10;;;;;;5049118;28;20153;-83
2021/03/01 14:32:43;;;;;;;1.73;1.20;;;16.80;31.00;;;;;;5041155;28;20033;-83
2021/03/01 14:35:09;;;;;;;4.07;1.63;;;16.80;31.00;;;;;;5041470;28;20036;-84
2021/03/01 14:37:35;;;;;;;3.92;2.15;;;16.80;31.00;;;;;;5033574;28;20037;-84
2021/03/01 14:40:01;;;;;;;3.70;2.20;;;16.70;30.90;;;;;;5031221;28;20063;-84
2021/03/01 14:42:27;;;;;;;7.45;1.70;;;16.70;31.30;;;;;;5035489;28;20025;-84
2021/03/01 14:44:52;;;;;;;3.40;1.35;;;16.70;31.40;;;;;;5030872;28;20021;-84
2021/03/01 14:47:21;;;;;;;4.95;1.60;;;16.70;31.50;;;;;;5048057;28;20408;-84
2021/03/01 14:49:48;;;;;;;6.15;1.70;;;16.70;31.30;;;;;;5036518;28;20059;-84
2021/03/01 14:52:15;;;;;;;5.32;1.67;;;16.70;31.20;;;;;;5036648;28;20025;-84
2021/03/01 14:54:40;;;;;;;6.68;1.42;;;16.70;31.50;;;;;;5035549;28;20022;-84
2021/03/01 14:57:06;;;;;;;3.92;1.77;;;16.60;31.60;;;;;;5035179;28;20086;-84
2021/03/01 14:59:32;;;;;;;6.18;1.90;;;16.60;31.60;;;;;;5039108;28;20024;-84
2021/03/01 15:01:57;;;;;;;2.35;1.60;;;16.70;31.80;;;;;;5059637;28;20076;-84
2021/03/01 15:04:23;;;;;;;7.95;1.83;;;16.60;31.80;;;;;;5034321;28;20160;-84
2021/03/01 15:06:49;;;;;;;3.22;1.65;;;16.60;31.80;;;;;;5036776;28;20383;-83
2021/03/01 15:09:14;;;;;;;4.13;2.50;;;16.60;32.00;;;;;;5002049;28;20049;-84
2021/03/01 15:11:40;;;;;;;4.25;2.08;;;16.70;32.00;;;;;;5010772;28;20077;-83
2021/03/01 15:14:06;;;;;;;4.82;2.13;;;16.60;31.80;;;;;;5006448;28;20053;-83
2021/03/01 15:16:31;;;;;;;3.63;1.77;;;16.60;31.90;;;;;;4998588;28;20068;-83
2021/03/01 15:18:57;;;;;;;4.35;1.60;;;16.50;32.00;;;;;;4995464;28;20030;-83
2021/03/01 15:21:23;;;;;;;5.43;1.80;;;16.50;32.10;;;;;;4991384;28;20022;-83
2021/03/01 15:23:48;;;;;;;5.55;1.80;;;16.40;32.10;;;;;;4994391;28;20100;-83
2021/03/01 15:26:14;;;;;;;4.50;1.93;;;16.30;32.30;;;;;;5012059;28;20033;-83
2021/03/01 15:28:40;;;;;;;4.25;1.95;;;16.30;32.40;;;;;;5013914;28;20064;-83
2021/03/01 15:31:05;;;;;;;4.87;2.53;;;16.30;32.50;;;;;;5018605;28;20034;-83
2021/03/01 15:33:31;;;;;;;8.37;2.67;;;16.30;32.80;;;;;;4997908;28;20406;-83
2021/03/01 15:35:57;;;;;;;8.15;3.05;;;16.20;33.00;;;;;;5003930;28;20034;-83
2021/03/01 15:38:23;;;;;;;6.20;2.17;;;16.20;33.50;;;;;;5020371;28;20072;-83
2021/03/01 15:40:50;;;;;;;5.20;3.10;;;16.10;33.70;;;;;;5002708;28;20056;-83
2021/03/01 15:43:15;;;;;;;4.80;3.73;;;16.00;34.00;;;;;;4987279;28;20113;-83
2021/03/01 15:45:41;;;;;;;7.57;4.00;;;16.00;34.30;;;;;;4996622;28;20062;-83
2021/03/01 15:48:08;;;;;;;6.40;4.27;;;15.90;34.50;;;;;;4995707;28;20469;-83
2021/03/01 15:50:35;;;;;;;6.90;4.20;;;15.90;34.90;;;;;;5031184;28;20038;-83
2021/03/01 15:53:00;;;;;;;8.13;4.37;;;15.80;35.20;;;;;;4991931;28;20034;-83
2021/03/01 15:55:26;;;;;;;7.13;3.50;;;15.80;35.40;;;;;;4998481;28;20047;-83
2021/03/01 15:57:52;;;;;;;13.30;5.00;;;15.70;36.10;;;;;;4992034;28;20053;-83
2021/03/01 16:00:18;;;;;;;8.13;3.97;;;15.70;35.80;;;;;;5009182;28;20030;-83
2021/03/01 16:02:44;;;;;;;10.80;4.63;;;15.70;36.10;;;;;;4995138;28;20475;-83
2021/03/01 16:05:11;;;;;;;8.33;5.00;;;15.60;36.30;;;;;;4995454;28;20049;-83
2021/03/01 16:07:37;;;;;;;6.20;4.03;;;15.60;36.60;;;;;;5013162;28;20038;-83
2021/03/01 16:10:04;;;;;;;6.67;3.37;;;15.50;36.80;;;;;;5019988;28;20507;-83
2021/03/01 16:12:29;;;;;;;8.07;4.30;;;15.40;37.20;;;;;;4997938;28;20102;-83
2021/03/01 16:14:55;;;;;;;8.33;4.60;;;15.40;37.40;;;;;;4993478;28;20186;-83
2021/03/01 16:17:21;;;;;;;9.00;4.30;;;15.30;37.60;;;;;;4991915;28;20034;-83
2021/03/01 16:19:47;;;;;;;7.50;5.07;;;15.20;37.90;;;;;;4992702;28;20042;-83
2021/03/01 16:22:12;;;;;;;7.73;4.47;;;15.10;38.20;;;;;;4995257;28;20038;-83
2021/03/01 16:24:38;;;;;;;5.10;4.40;;;15.00;38.40;;;;;;5024860;28;20044;-83
2021/03/01 16:27:04;;;;;;;7.10;4.40;;;14.90;38.60;;;;;;5026828;28;20034;-83
2021/03/01 16:29:30;;;;;;;8.07;5.17;;;14.80;38.90;;;;;;4993899;28;20030;-83
2021/03/01 16:31:56;;;;;;;19.30;5.13;;;14.70;39.10;;;;;;4997048;28;20037;-83
2021/03/01 16:34:22;;;;;;;7.63;5.03;;;14.60;39.30;;;;;;5016495;28;20053;-83
2021/03/01 16:36:48;;;;;;;9.50;4.93;;;14.60;39.50;;;;;;4988797;28;20315;-83
2021/03/01 16:39:15;;;;;;;10.20;5.43;;;14.50;39.70;;;;;;5003608;28;20054;-83
2021/03/01 16:41:41;;;;;;;7.47;4.90;;;14.50;39.90;;;;;;4993156;28;20114;-83
2021/03/01 16:44:07;;;;;;;11.23;5.37;;;14.40;40.10;;;;;;4995058;28;20042;-83
2021/03/01 16:46:36;;;;;;;12.37;5.37;;;14.40;40.20;;;;;;4996393;28;20027;-83
2021/03/01 16:49:05;;;;;;;10.23;4.90;;;14.30;40.40;;;;;;4991313;28;20129;-83
2021/03/01 16:51:32;;;;;;;10.40;5.40;;;14.20;40.60;;;;;;5004195;28;20034;-82
2021/03/01 16:53:57;;;;;;;8.07;4.63;;;14.20;40.70;;;;;;5012213;28;20033;-83
2021/03/01 16:56:24;;;;;;;11.80;4.70;;;14.10;40.80;;;;;;5004865;28;20025;-83
2021/03/01 16:58:54;;;;;;;7.73;4.53;;;14.00;40.90;;;;;;5027830;28;20034;-83
2021/03/01 17:01:39;;;;;;;8.37;5.00;;;14.00;41.20;;;;;;4998294;28;20673;-83
2021/03/01 17:04:07;;;;;;;10.20;5.07;;;13.80;41.50;;;;;;5006577;28;20029;-83
2021/03/01 17:06:52;;;;;;;7.27;5.53;;;13.80;41.50;;;;;;4998861;28;20069;-83
2021/03/01 17:09:32;;;;;;;11.77;4.80;;;13.70;41.80;;;;;;5030685;28;20477;-83
2021/03/01 17:12:02;;;;;;;9.60;4.67;;;13.60;41.60;;;;;;5016081;28;20133;-83
2021/03/01 17:14:50;;;;;;;8.73;4.27;;;13.40;41.20;;;;;;5018786;28;20029;-83
2021/03/01 17:17:21;;;;;;;9.40;4.10;;;13.20;41.20;;;;;;5007325;28;20018;-83
2021/03/01 17:19:52;;;;;;;9.90;4.80;;;13.10;41.30;;;;;;5006862;28;20042;-83
2021/03/01 17:22:25;;;;;;;15.03;5.90;;;12.90;41.50;;;;;;4994494;28;20534;-83
2021/03/01 17:24:52;;;;;;;12.37;5.80;;;12.80;41.70;;;;;;5015525;28;20064;-83
2021/03/01 17:27:22;;;;;;;15.60;6.53;;;12.70;41.80;;;;;;5014157;28;20057;-83
2021/03/01 17:29:50;;;;;;;8.03;4.20;;;12.70;41.90;;;;;;4999082;28;20097;-83
2021/03/01 17:32:21;;;;;;;11.37;4.00;;;12.70;41.80;;;;;;5007691;28;20113;-83
2021/03/01 17:34:48;;;;;;;7.23;4.40;;;12.50;42.50;;;;;;5024584;28;20069;-83
2021/03/01 17:37:14;;;;;;;6.83;3.77;;;12.30;42.00;;;;;;4998673;28;20034;-83
2021/03/01 17:39:41;;;;;;;4.93;3.03;;;12.20;42.20;;;;;;5018316;28;20133;-83
2021/03/01 17:42:08;;;;;;;7.80;3.53;;;12.10;42.50;;;;;;5011079;28;20149;-83
2021/03/01 17:44:35;;;;;;;7.83;3.90;;;11.90;42.80;;;;;;4994127;28;20026;-83
2021/03/01 17:47:15;;;;;;;11.10;6.07;;;11.80;43.10;;;;;;4999708;28;20102;-83
2021/03/01 17:49:56;;;;;;;21.63;11.73;;;11.70;43.60;;;;;;5000531;28;20034;-83
2021/03/01 17:52:34;;;;;;;23.23;11.50;;;11.60;43.60;;;;;;5010314;28;20061;-83
2021/03/01 17:55:21;;;;;;;19.97;10.67;;;11.60;43.80;;;;;;4987115;28;20508;-83
2021/03/01 17:57:59;;;;;;;13.83;7.87;;;11.50;44.00;;;;;;4997874;28;20034;-83
2021/03/01 18:00:28;;;;;;;15.53;9.40;;;11.50;44.10;;;;;;5000821;28;20018;-83
2021/03/01 18:03:16;;;;;;;11.60;5.93;;;11.50;44.10;;;;;;5000796;28;20026;-83
2021/03/01 18:05:53;;;;;;;10.37;6.77;;;11.50;44.20;;;;;;5013706;28;20820;-83
2021/03/01 18:08:25;;;;;;;7.73;5.07;;;11.40;44.40;;;;;;5017263;28;20034;-82
2021/03/01 18:10:53;;;;;;;8.43;4.53;;;11.40;44.40;;;;;;5008638;28;20033;-83
2021/03/01 18:13:24;;;;;;;11.10;4.30;;;11.40;44.30;;;;;;4992467;28;20033;-83
2021/03/01 18:15:52;;;;;;;6.00;3.23;;;11.40;44.50;;;;;;5012248;28;20034;-83
2021/03/01 18:18:23;;;;;;;7.97;4.13;;;11.30;44.50;;;;;;4997352;28;20057;-83
2021/03/01 18:20:55;;;;;;;9.23;4.80;;;11.30;44.40;;;;;;4995405;28;20030;-82
2021/03/01 18:23:21;;;;;;;8.63;4.50;;;11.20;44.60;;;;;;5008788;28;20021;-83
2021/03/01 18:25:49;;;;;;;11.13;5.90;;;11.10;44.80;;;;;;5012491;28;20296;-83
2021/03/01 18:28:16;;;;;;;13.77;7.43;;;11.10;45.10;;;;;;5008414;28;20172;-83
2021/03/01 18:30:44;;;;;;;10.37;6.07;;;11.00;45.50;;;;;;5013736;28;20026;-83
2021/03/01 18:33:11;;;;;;;17.80;7.27;;;10.90;45.50;;;;;;4994647;28;20029;-82
2021/03/01 18:35:54;;;;;;;11.40;7.13;;;10.80;45.80;;;;;;4997835;28;20080;-83
2021/03/01 18:39:01;;;;;;;11.97;6.93;;;10.70;46.00;;;;;;5005915;28;20034;-82
2021/03/01 18:41:29;;;;;;;14.47;6.67;;;10.60;46.20;;;;;;4962373;28;20039;-83
2021/03/01 18:43:58;;;;;;;12.43;6.80;;;10.50;46.40;;;;;;4985408;28;20019;-83
2021/03/01 18:46:27;;;;;;;13.10;7.63;;;10.50;46.60;;;;;;4986857;28;20027;-83
2021/03/01 18:48:56;;;;;;;9.93;5.03;;;10.60;46.50;;;;;;4991924;28;20030;-83
2021/03/01 18:51:23;;;;;;;13.07;5.60;;;10.60;46.50;;;;;;4978082;28;20033;-83
2021/03/01 18:53:50;;;;;;;11.17;4.43;;;10.50;46.60;;;;;;4983581;28;20058;-83
2021/03/01 18:56:16;;;;;;;8.70;5.07;;;10.40;46.80;;;;;;4975846;28;20058;-83
2021/03/01 18:58:42;;;;;;;9.97;5.17;;;10.40;46.70;;;;;;4979155;28;20061;-83
2021/03/01 19:01:08;;;;;;;10.50;4.53;;;10.30;46.60;;;;;;4994817;28;20022;-83
2021/03/01 19:03:34;;;;;;;8.27;4.50;;;10.20;46.60;;;;;;4991072;28;20019;-83
2021/03/01 19:06:01;;;;;;;13.93;5.07;;;10.20;46.80;;;;;;4979084;28;20452;-83
2021/03/01 19:08:27;;;;;;;8.87;4.93;;;10.20;46.90;;;;;;4981321;28;20426;-83
2021/03/01 19:10:53;;;;;;;8.33;4.13;;;10.10;47.20;;;;;;4980063;28;20030;-82
2021/03/01 19:13:19;;;;;;;7.53;4.50;;;10.10;47.50;;;;;;4979682;28;20029;-82
2021/03/01 19:15:45;;;;;;;12.03;5.10;;;10.00;47.50;;;;;;4990245;28;20029;-82
2021/03/01 19:18:12;;;;;;;10.37;4.90;;;10.00;47.70;;;;;;4991378;28;20077;-82
2021/03/01 19:20:37;;;;;;;6.70;4.40;;;9.90;48.10;;;;;;4991022;28;20093;-83
2021/03/01 19:23:04;;;;;;;8.23;5.20;;;9.80;48.30;;;;;;4978102;28;20038;-83
2021/03/01 19:25:30;;;;;;;17.70;7.67;;;9.60;48.90;;;;;;4975063;28;20474;-83
2021/03/01 19:27:59;;;;;;;14.47;7.53;;;9.60;48.40;;;;;;4976703;28;20058;-83
2021/03/01 19:30:26;;;;;;;16.00;7.37;;;9.50;48.60;;;;;;4972735;28;20027;-83
2021/03/01 19:32:53;;;;;;;13.17;7.20;;;9.50;48.60;;;;;;4967688;28;20031;-83
2021/03/01 19:35:19;;;;;;;10.27;6.33;;;9.40;48.90;;;;;;4995407;28;20027;-83
2021/03/01 19:37:45;;;;;;;13.03;5.37;;;9.30;49.20;;;;;;4978724;28;20737;-83
2021/03/01 19:40:13;;;;;;;8.37;4.67;;;9.30;49.10;;;;;;5001793;28;20049;-83
2021/03/01 19:42:39;;;;;;;10.50;3.67;;;9.20;49.10;;;;;;4989754;28;20026;-83
2021/03/01 19:45:08;;;;;;;8.87;4.13;;;9.10;49.10;;;;;;4998135;28;20706;-83
2021/03/01 19:47:34;;;;;;;9.60;4.73;;;9.10;49.30;;;;;;5020987;28;20772;-83
2021/03/01 19:50:00;;;;;;;9.50;5.67;;;9.00;49.50;;;;;;4992633;28;20058;-83
2021/03/01 19:52:26;;;;;;;11.97;5.60;;;9.00;49.70;;;;;;5005589;28;20029;-83
2021/03/01 19:54:52;;;;;;;8.70;5.17;;;9.00;49.70;;;;;;5005027;28;20440;-83
2021/03/01 19:57:18;;;;;;;8.00;3.63;;;8.90;49.80;;;;;;5001175;28;20022;-83
2021/03/01 19:59:43;;;;;;;7.13;3.60;;;8.90;49.70;;;;;;5010232;28;20036;-83
2021/03/01 20:02:09;;;;;;;8.23;3.23;;;8.90;49.50;;;;;;5012530;28;20104;-83
2021/03/01 20:04:35;;;;;;;8.27;5.43;;;9.00;49.50;;;;;;5004696;28;20022;-83
2021/03/01 20:07:01;;;;;;;9.33;5.10;;;8.90;49.30;;;;;;5010301;28;20079;-83
2021/03/01 20:09:26;;;;;;;10.23;4.07;;;8.80;49.30;;;;;;5007202;28;20025;-83
2021/03/01 20:11:52;;;;;;;6.37;4.13;;;8.60;49.60;;;;;;4994370;28;20057;-83
2021/03/01 20:14:18;;;;;;;10.63;5.10;;;8.60;49.90;;;;;;4996398;28;20052;-83
2021/03/01 20:16:44;;;;;;;15.67;8.17;;;8.60;49.80;;;;;;4998669;28;20060;-83
2021/03/01 20:19:10;;;;;;;8.43;4.90;;;8.60;49.90;;;;;;4992088;28;20037;-83
2021/03/01 20:21:35;;;;;;;6.57;3.83;;;8.60;49.90;;;;;;4999557;28;20018;-82
2021/03/01 20:24:02;;;;;;;8.00;3.60;;;8.60;49.90;;;;;;4999683;28;20033;-82
2021/03/01 20:26:28;;;;;;;6.53;2.90;;;8.60;50.00;;;;;;5001476;28;20033;-83
2021/03/01 20:28:54;;;;;;;8.80;3.00;;;8.40;49.90;;;;;;5001401;28;20064;-83
2021/03/01 20:31:20;;;;;;;4.27;2.67;;;8.20;50.40;;;;;;4999019;28;20025;-83
2021/03/01 20:33:47;;;;;;;4.53;2.80;;;8.10;50.80;;;;;;5019223;28;20061;-83
2021/03/01 20:36:13;;;;;;;5.17;2.47;;;8.00;51.10;;;;;;4998088;28;20069;-83
2021/03/01 20:38:39;;;;;;;6.63;2.50;;;8.10;51.00;;;;;;5021111;28;20029;-83
2021/03/01 20:41:05;;;;;;;6.93;3.60;;;8.10;50.90;;;;;;5019939;28;20093;-83
2021/03/01 20:43:31;;;;;;;7.53;3.07;;;8.00;51.00;;;;;;5002008;28;20469;-83
2021/03/01 20:45:57;;;;;;;7.97;2.53;;;8.00;51.10;;;;;;5018491;28;20032;-83
2021/03/01 20:48:24;;;;;;;6.37;2.57;;;8.10;51.20;;;;;;5032170;28;20499;-83
2021/03/01 20:50:50;;;;;;;6.03;2.93;;;8.10;51.10;;;;;;5017232;28;20036;-83
2021/03/01 20:53:16;;;;;;;7.70;3.27;;;8.10;51.10;;;;;;5004086;28;20107;-82
2021/03/01 20:55:42;;;;;;;5.20;3.07;;;8.20;51.00;;;;;;5017213;28;20124;-82
2021/03/01 20:58:08;;;;;;;4.27;2.33;;;8.20;50.90;;;;;;5000807;28;20444;-83
2021/03/01 21:00:34;;;;;;;5.80;2.63;;;8.20;50.90;;;;;;4992548;28;20022;-83
2021/03/01 21:03:00;;;;;;;5.63;2.43;;;8.10;50.80;;;;;;4999205;28;20033;-83
2021/03/01 21:05:27;;;;;;;4.57;2.57;;;8.00;50.80;;;;;;5000391;28;20380;-83
2021/03/01 21:07:54;;;;;;;6.17;2.17;;;8.00;51.00;;;;;;5000076;28;20419;-83
2021/03/01 21:10:21;;;;;;;4.27;2.53;;;8.00;51.00;;;;;;5017064;28;20022;-83
2021/03/01 21:12:47;;;;;;;9.00;3.50;;;8.00;51.20;;;;;;5001913;28;20036;-83
2021/03/01 21:15:15;;;;;;;6.20;3.30;;;8.00;51.20;;;;;;5001144;28;20029;-83
2021/03/01 21:17:41;;;;;;;6.20;2.10;;;7.90;51.30;;;;;;4998091;28;20026;-83
2021/03/01 21:20:14;;;;;;;7.20;3.73;;;7.90;51.40;;;;;;5017471;28;20037;-83
2021/03/01 21:23:03;;;;;;;4.38;2.60;;;7.90;51.20;;;;;;4995934;28;20720;-83
2021/03/01 21:25:34;;;;;;;9.07;3.30;;;7.80;51.10;;;;;;4996725;28;20026;-83
2021/03/01 21:28:01;;;;;;;3.33;1.87;;;7.80;51.10;;;;;;5018497;28;20026;-83
2021/03/01 21:30:30;;;;;;;4.00;2.33;;;7.80;51.20;;;;;;5002821;28;20038;-83
2021/03/01 21:33:01;;;;;;;4.53;2.33;;;7.70;51.20;;;;;;5017593;28;20026;-83
2021/03/01 21:35:28;;;;;;;2.90;1.73;;;7.60;51.60;;;;;;5011192;28;20585;-83
2021/03/01 21:37:54;;;;;;;5.03;2.00;;;7.60;51.60;;;;;;4990191;28;20091;-83
2021/03/01 21:40:23;;;;;;;5.60;2.07;;;7.70;51.70;;;;;;4997488;28;20042;-83
2021/03/01 21:42:53;;;;;;;7.53;2.70;;;7.70;51.80;;;;;;4992629;28;20121;-83
2021/03/01 21:45:20;;;;;;;5.77;2.73;;;7.80;51.80;;;;;;5026382;28;20377;-83
2021/03/01 21:47:51;;;;;;;6.07;2.80;;;7.80;51.80;;;;;;5001310;28;20045;-83
2021/03/01 21:50:18;;;;;;;4.57;2.50;;;7.90;51.80;;;;;;4994953;28;20056;-83
2021/03/01 21:53:02;;;;;;;3.37;1.90;;;7.80;51.80;;;;;;5000774;28;20572;-83
2021/03/01 21:55:28;;;;;;;9.13;2.50;;;7.70;51.60;;;;;;4999807;28;20053;-83
2021/03/01 21:57:54;;;;;;;8.07;2.70;;;7.50;52.00;;;;;;5000372;28;20060;-83
2021/03/01 22:00:20;;;;;;;4.20;2.13;;;7.40;52.10;;;;;;5014003;28;20022;-83
2021/03/01 22:02:52;;;;;;;3.97;2.47;;;7.30;52.20;;;;;;4998038;28;20026;-83
2021/03/01 22:05:20;;;;;;;5.00;2.30;;;7.30;52.60;;;;;;5005501;28;20018;-83
2021/03/01 22:07:47;;;;;;;3.73;2.27;;;7.40;52.40;;;;;;4998709;28;20088;-83
2021/03/01 22:10:14;;;;;;;4.77;2.53;;;7.40;52.40;;;;;;4994338;28;20033;-83
2021/03/01 22:12:45;;;;;;;3.33;2.20;;;7.50;53.00;;;;;;5023985;28;20026;-83
2021/03/01 22:15:13;;;;;;;5.80;2.37;;;7.60;52.20;;;;;;4992304;28;20022;-82
2021/03/01 22:17:40;;;;;;;4.00;2.30;;;7.60;51.90;;;;;;4993281;28;20022;-83
2021/03/01 22:20:08;;;;;;;6.07;2.60;;;7.60;51.80;;;;;;4992144;28;20111;-83
2021/03/01 22:22:35;;;;;;;7.17;3.87;;;7.60;51.70;;;;;;4995985;28;20022;-83
2021/03/01 22:25:02;;;;;;;6.53;3.53;;;7.50;51.80;;;;;;4998729;28;20018;-83
2021/03/01 22:27:34;;;;;;;7.63;4.60;;;7.50;51.80;;;;;;5001109;28;20021;-84
2021/03/01 22:30:04;;;;;;;7.93;4.70;;;7.50;52.00;;;;;;4994962;28;20037;-84
2021/03/01 22:32:34;;;;;;;5.83;4.17;;;7.50;52.20;;;;;;5016192;28;20022;-84
2021/03/01 22:35:08;;;;;;;7.90;4.60;;;7.50;52.20;;;;;;4991374;28;20038;-84
2021/03/01 22:37:35;;;;;;;8.37;5.23;;;7.50;52.30;;;;;;5002917;28;20056;-84
2021/03/01 22:40:06;;;;;;;9.27;5.13;;;7.40;52.30;;;;;;4997306;28;20053;-84
2021/03/01 22:42:36;;;;;;;8.63;5.27;;;7.30;52.60;;;;;;4998394;28;20111;-83
2021/03/01 22:45:02;;;;;;;12.13;5.87;;;7.30;52.70;;;;;;4993914;28;20034;-83
2021/03/01 22:47:31;;;;;;;11.47;5.77;;;7.10;52.90;;;;;;5022234;28;20021;-83
2021/03/01 22:50:00;;;;;;;12.93;5.67;;;7.10;53.20;;;;;;5013383;28;20128;-83
2021/03/01 22:52:30;;;;;;;10.07;5.37;;;7.10;53.30;;;;;;4995023;28;20047;-83
2021/03/01 22:54:59;;;;;;;11.13;6.10;;;6.90;53.50;;;;;;5000368;28;20037;-84
2021/03/01 22:57:27;;;;;;;10.97;5.80;;;7.00;53.60;;;;;;4989433;28;20030;-83
2021/03/01 22:59:53;;;;;;;10.57;5.53;;;7.00;53.70;;;;;;5015131;28;20033;-83
2021/03/01 23:02:19;;;;;;;15.63;6.33;;;6.90;53.90;;;;;;4994951;28;20041;-84
2021/03/01 23:04:44;;;;;;;8.90;6.10;;;7.00;53.80;;;;;;4997016;28;20083;-84
2021/03/01 23:07:11;;;;;;;6.30;3.13;;;7.00;53.80;;;;;;4993676;28;20034;-84
2021/03/01 23:09:37;;;;;;;8.00;4.03;;;7.00;54.10;;;;;;4996528;28;20099;-83
2021/03/01 23:12:04;;;;;;;8.07;4.40;;;6.90;53.70;;;;;;5010549;28;20087;-83
2021/03/01 23:14:31;;;;;;;11.03;4.50;;;6.80;53.80;;;;;;5010464;28;20033;-83
2021/03/01 23:16:57;;;;;;;10.93;5.10;;;6.80;54.00;;;;;;4990975;28;20123;-83
2021/03/01 23:19:27;;;;;;;13.50;4.77;;;6.80;53.80;;;;;;5007339;28;20044;-82
2021/03/01 23:21:56;;;;;;;13.23;5.60;;;6.80;53.80;;;;;;5005859;28;20026;-82
2021/03/01 23:24:21;;;;;;;13.50;6.27;;;6.70;53.70;;;;;;4998515;28;20117;-82
2021/03/01 23:26:47;;;;;;;9.80;5.70;;;6.60;53.90;;;;;;4998307;28;20061;-82
2021/03/01 23:29:13;;;;;;;7.60;4.23;;;6.50;54.10;;;;;;4999315;28;20040;-82
2021/03/01 23:31:39;;;;;;;17.23;4.73;;;6.40;54.10;;;;;;5011958;28;20373;-82
2021/03/01 23:34:04;;;;;;;15.20;6.33;;;6.40;54.30;;;;;;4998596;28;20057;-82
2021/03/01 23:36:33;;;;;;;12.47;5.80;;;6.40;54.40;;;;;;4996309;28;20441;-82
2021/03/01 23:39:00;;;;;;;13.40;6.30;;;6.40;54.50;;;;;;4998972;28;20034;-82
2021/03/01 23:41:26;;;;;;;12.33;6.40;;;6.40;54.50;;;;;;5009167;28;20019;-82
2021/03/01 23:43:57;;;;;;;10.23;6.20;;;6.50;54.40;;;;;;4995905;28;20026;-83
2021/03/01 23:46:25;;;;;;;6.07;3.60;;;6.50;54.30;;;;;;5019862;28;20044;-83
2021/03/01 23:48:51;;;;;;;6.60;3.97;;;6.40;54.10;;;;;;4997944;28;20034;-83
2021/03/01 23:51:18;;;;;;;9.13;4.23;;;6.40;54.40;;;;;;5003559;28;20116;-83
2021/03/01 23:53:45;;;;;;;8.57;4.83;;;6.40;54.40;;;;;;4996036;28;20045;-83
2021/03/01 23:56:12;;;;;;;7.83;5.10;;;6.40;54.30;;;;;;5024334;28;20033;-83
2021/03/01 23:58:39;;;;;;;7.57;3.70;;;6.50;54.30;;;;;;4999925;28;20086;-83
